N46TW KBHB-KART
Flight info
| Callsign | N46TW |
|---|---|
| Flight time | 1h 43m |
| Altitude | 24000 |
| Route | BGR ART |
| Aircraft | PC12/L-SDFGRWY/S |
Departure
| Time | 2026-05-05 00:53 |
|---|---|
| Airport | Hancock County-Bar Harbor Airport (KBHB) |
Arrival
| Time | 2026-05-05 02:36 |
|---|---|
| Airport | Watertown International Airport (KART) |
| Time | Latitude | Longitude | Altitude | Speed | Heading |
|---|---|---|---|---|---|
| 2026-05-05 00:34 | 44.44630 | -68.36177 | 67 ft | 0 kts | 204° |
| 2026-05-05 00:47 | 44.44624 | -68.36205 | 68 ft | 6 kts | 307° |
| 2026-05-05 00:48 | 44.44676 | -68.36220 | 70 ft | 8 kts | 289° |
| 2026-05-05 00:48 | 44.44672 | -68.36245 | 71 ft | 3 kts | 263° |
| 2026-05-05 00:48 | 44.44678 | -68.36305 | 72 ft | 7 kts | 271° |
| 2026-05-05 00:48 | 44.44706 | -68.36355 | 74 ft | 10 kts | 10° |
| 2026-05-05 00:49 | 44.44791 | -68.36301 | 77 ft | 16 kts | 23° |
| 2026-05-05 00:49 | 44.44898 | -68.36234 | 77 ft | 17 kts | 24° |
| 2026-05-05 00:49 | 44.45015 | -68.36159 | 76 ft | 19 kts | 25° |
| 2026-05-05 00:49 | 44.45142 | -68.36076 | 72 ft | 21 kts | 25° |
| 2026-05-05 00:50 | 44.45284 | -68.35989 | 65 ft | 23 kts | 24° |
| 2026-05-05 00:50 | 44.45438 | -68.35889 | 55 ft | 21 kts | 22° |
| 2026-05-05 00:50 | 44.45569 | -68.35805 | 46 ft | 19 kts | 25° |
| 2026-05-05 00:50 | 44.45642 | -68.35796 | 45 ft | 8 kts | 299° |
| 2026-05-05 00:51 | 44.45645 | -68.35803 | 46 ft | 0 kts | 298° |
| 2026-05-05 00:52 | 44.45652 | -68.35824 | 47 ft | 6 kts | 291° |
| 2026-05-05 00:52 | 44.45658 | -68.35889 | 52 ft | 7 kts | 244° |
| 2026-05-05 00:52 | 44.45582 | -68.35963 | 59 ft | 27 kts | 205° |
| 2026-05-05 00:52 | 44.45146 | -68.36244 | 81 ft | 104 kts | 202° |
| 2026-05-05 00:53 | 44.44436 | -68.36671 | 477 ft | 116 kts | 204° |
| 2026-05-05 00:53 | 44.43670 | -68.37163 | 996 ft | 131 kts | 206° |
| 2026-05-05 00:53 | 44.42939 | -68.37889 | 1741 ft | 127 kts | 235° |
| 2026-05-05 00:53 | 44.42708 | -68.38974 | 2539 ft | 114 kts | 270° |
| 2026-05-05 00:54 | 44.43121 | -68.39902 | 2987 ft | 132 kts | 321° |
| 2026-05-05 00:54 | 44.43824 | -68.40588 | 3698 ft | 118 kts | 312° |
| 2026-05-05 00:54 | 44.44446 | -68.41283 | 4299 ft | 115 kts | 311° |
| 2026-05-05 00:54 | 44.45061 | -68.41959 | 4855 ft | 114 kts | 311° |
| 2026-05-05 00:55 | 44.45678 | -68.42638 | 5425 ft | 110 kts | 302° |
| 2026-05-05 00:55 | 44.45939 | -68.43548 | 5958 ft | 106 kts | 276° |
| 2026-05-05 00:55 | 44.46012 | -68.44536 | 6632 ft | 102 kts | 271° |
| 2026-05-05 00:55 | 44.46040 | -68.45512 | 7204 ft | 104 kts | 270° |
| 2026-05-05 00:56 | 44.46045 | -68.46523 | 7733 ft | 109 kts | 270° |
| 2026-05-05 00:56 | 44.46035 | -68.47599 | 8261 ft | 114 kts | 270° |
| 2026-05-05 00:56 | 44.46015 | -68.48700 | 8810 ft | 116 kts | 270° |
| 2026-05-05 00:56 | 44.45989 | -68.49796 | 9382 ft | 116 kts | 271° |
| 2026-05-05 00:57 | 44.45959 | -68.50943 | 9953 ft | 116 kts | 271° |
| 2026-05-05 00:57 | 44.45927 | -68.52102 | 10483 ft | 118 kts | 271° |
| 2026-05-05 00:57 | 44.45896 | -68.53225 | 10996 ft | 118 kts | 271° |
| 2026-05-05 00:57 | 44.45864 | -68.54380 | 11504 ft | 118 kts | 271° |
| 2026-05-05 00:58 | 44.45830 | -68.55540 | 11960 ft | 121 kts | 271° |
| 2026-05-05 00:58 | 44.45795 | -68.56702 | 12461 ft | 120 kts | 271° |
| 2026-05-05 00:58 | 44.45762 | -68.57853 | 12893 ft | 122 kts | 272° |
| 2026-05-05 00:58 | 44.45728 | -68.59026 | 13350 ft | 122 kts | 271° |
| 2026-05-05 00:59 | 44.45692 | -68.60213 | 13777 ft | 123 kts | 271° |
| 2026-05-05 00:59 | 44.45657 | -68.61403 | 14202 ft | 124 kts | 271° |
| 2026-05-05 00:59 | 44.45620 | -68.62588 | 14651 ft | 122 kts | 271° |
| 2026-05-05 00:59 | 44.45585 | -68.63757 | 15034 ft | 124 kts | 272° |
| 2026-05-05 01:00 | 44.45547 | -68.64970 | 15435 ft | 124 kts | 272° |
| 2026-05-05 01:00 | 44.45511 | -68.66161 | 15833 ft | 124 kts | 272° |
| 2026-05-05 01:00 | 44.45474 | -68.67348 | 16210 ft | 125 kts | 272° |
| 2026-05-05 01:00 | 44.45437 | -68.68573 | 16569 ft | 126 kts | 272° |
| 2026-05-05 01:01 | 44.45400 | -68.69790 | 16940 ft | 126 kts | 272° |
| 2026-05-05 01:01 | 44.45363 | -68.71014 | 17297 ft | 127 kts | 272° |
| 2026-05-05 01:01 | 44.45325 | -68.72219 | 17673 ft | 125 kts | 272° |
| 2026-05-05 01:01 | 44.45287 | -68.73446 | 17997 ft | 127 kts | 272° |
| 2026-05-05 01:02 | 44.45251 | -68.74654 | 18325 ft | 127 kts | 272° |
| 2026-05-05 01:02 | 44.45210 | -68.75896 | 18661 ft | 127 kts | 273° |
| 2026-05-05 01:02 | 44.45174 | -68.77117 | 18978 ft | 128 kts | 272° |
| 2026-05-05 01:02 | 44.45134 | -68.78373 | 19289 ft | 129 kts | 272° |
| 2026-05-05 01:03 | 44.45094 | -68.79619 | 19573 ft | 131 kts | 273° |
| 2026-05-05 01:03 | 44.45030 | -68.80888 | 19877 ft | 133 kts | 269° |
| 2026-05-05 01:03 | 44.44905 | -68.82156 | 20167 ft | 133 kts | 270° |
| 2026-05-05 01:03 | 44.44815 | -68.83454 | 20448 ft | 134 kts | 272° |
| 2026-05-05 01:04 | 44.44747 | -68.84761 | 20729 ft | 134 kts | 272° |
| 2026-05-05 01:04 | 44.44637 | -68.87367 | 21264 ft | 136 kts | 272° |
| 2026-05-05 01:04 | 44.44584 | -68.88690 | 21529 ft | 137 kts | 272° |
| 2026-05-05 01:05 | 44.44534 | -68.90018 | 21784 ft | 138 kts | 273° |
| 2026-05-05 01:05 | 44.44484 | -68.91352 | 22048 ft | 138 kts | 272° |
| 2026-05-05 01:05 | 44.44432 | -68.92688 | 22297 ft | 138 kts | 273° |
| 2026-05-05 01:05 | 44.44381 | -68.94025 | 22549 ft | 139 kts | 273° |
| 2026-05-05 01:06 | 44.44330 | -68.95387 | 22767 ft | 141 kts | 273° |
| 2026-05-05 01:06 | 44.44278 | -68.96740 | 22998 ft | 141 kts | 274° |
| 2026-05-05 01:06 | 44.44226 | -68.98107 | 23252 ft | 140 kts | 273° |
| 2026-05-05 01:06 | 44.44174 | -68.99473 | 23449 ft | 142 kts | 274° |
| 2026-05-05 01:07 | 44.44122 | -69.00861 | 23670 ft | 143 kts | 273° |
| 2026-05-05 01:07 | 44.44068 | -69.02261 | 23809 ft | 148 kts | 274° |
| 2026-05-05 01:07 | 44.44013 | -69.03741 | 23819 ft | 158 kts | 273° |
| 2026-05-05 01:07 | 44.43956 | -69.05300 | 23816 ft | 166 kts | 273° |
| 2026-05-05 01:08 | 44.43894 | -69.06948 | 23811 ft | 173 kts | 272° |
| 2026-05-05 01:08 | 44.43828 | -69.08649 | 23808 ft | 179 kts | 272° |
| 2026-05-05 01:08 | 44.43758 | -69.10419 | 23804 ft | 183 kts | 272° |
| 2026-05-05 01:08 | 44.43685 | -69.12222 | 23806 ft | 187 kts | 272° |
| 2026-05-05 01:09 | 44.43611 | -69.14040 | 23810 ft | 189 kts | 272° |
| 2026-05-05 01:09 | 44.43536 | -69.15870 | 23805 ft | 192 kts | 272° |
| 2026-05-05 01:09 | 44.43462 | -69.17742 | 23801 ft | 193 kts | 272° |
| 2026-05-05 01:09 | 44.43385 | -69.19622 | 23804 ft | 194 kts | 272° |
| 2026-05-05 01:10 | 44.43310 | -69.21500 | 23807 ft | 195 kts | 272° |
| 2026-05-05 01:10 | 44.43235 | -69.23381 | 23807 ft | 196 kts | 272° |
| 2026-05-05 01:10 | 44.43156 | -69.25292 | 23807 ft | 196 kts | 272° |
| 2026-05-05 01:10 | 44.43079 | -69.27203 | 23805 ft | 197 kts | 272° |
| 2026-05-05 01:11 | 44.43002 | -69.29102 | 23810 ft | 198 kts | 272° |
| 2026-05-05 01:11 | 44.42923 | -69.31017 | 23809 ft | 198 kts | 272° |
| 2026-05-05 01:11 | 44.42841 | -69.32944 | 23809 ft | 199 kts | 272° |
| 2026-05-05 01:11 | 44.42763 | -69.34866 | 23807 ft | 199 kts | 272° |
| 2026-05-05 01:12 | 44.42684 | -69.36792 | 23807 ft | 199 kts | 272° |
| 2026-05-05 01:12 | 44.42604 | -69.38721 | 23805 ft | 199 kts | 272° |
| 2026-05-05 01:12 | 44.42521 | -69.40659 | 23809 ft | 199 kts | 271° |
| 2026-05-05 01:12 | 44.42439 | -69.42561 | 23810 ft | 199 kts | 272° |
| 2026-05-05 01:13 | 44.42359 | -69.44494 | 23812 ft | 199 kts | 272° |
| 2026-05-05 01:13 | 44.42279 | -69.46429 | 23813 ft | 199 kts | 272° |
| 2026-05-05 01:13 | 44.42195 | -69.48335 | 23813 ft | 199 kts | 272° |
| 2026-05-05 01:13 | 44.42112 | -69.50275 | 23814 ft | 199 kts | 272° |
| 2026-05-05 01:14 | 44.42033 | -69.52197 | 23809 ft | 199 kts | 271° |
| 2026-05-05 01:14 | 44.41949 | -69.54113 | 23804 ft | 199 kts | 272° |
| 2026-05-05 01:14 | 44.41865 | -69.56028 | 23796 ft | 198 kts | 272° |
| 2026-05-05 01:14 | 44.41782 | -69.57958 | 23811 ft | 198 kts | 272° |
| 2026-05-05 01:15 | 44.41699 | -69.59861 | 23812 ft | 198 kts | 272° |
| 2026-05-05 01:15 | 44.41616 | -69.61772 | 23811 ft | 198 kts | 272° |
| 2026-05-05 01:15 | 44.41533 | -69.63708 | 23811 ft | 198 kts | 271° |
| 2026-05-05 01:15 | 44.41447 | -69.65608 | 23814 ft | 198 kts | 271° |
| 2026-05-05 01:16 | 44.41361 | -69.67548 | 23818 ft | 199 kts | 271° |
| 2026-05-05 01:16 | 44.41277 | -69.69464 | 23822 ft | 200 kts | 271° |
| 2026-05-05 01:16 | 44.41191 | -69.71397 | 23821 ft | 200 kts | 271° |
| 2026-05-05 01:16 | 44.41104 | -69.73352 | 23820 ft | 201 kts | 271° |
| 2026-05-05 01:17 | 44.41015 | -69.75291 | 23820 ft | 201 kts | 271° |
| 2026-05-05 01:17 | 44.40926 | -69.77266 | 23818 ft | 202 kts | 271° |
| 2026-05-05 01:17 | 44.40839 | -69.79213 | 23819 ft | 202 kts | 271° |
| 2026-05-05 01:17 | 44.40750 | -69.81155 | 23813 ft | 202 kts | 271° |
| 2026-05-05 01:18 | 44.40662 | -69.83115 | 23809 ft | 202 kts | 271° |
| 2026-05-05 01:18 | 44.40573 | -69.85061 | 23806 ft | 202 kts | 271° |
| 2026-05-05 01:18 | 44.40483 | -69.87028 | 23806 ft | 202 kts | 271° |
| 2026-05-05 01:18 | 44.40392 | -69.88989 | 23805 ft | 202 kts | 271° |
| 2026-05-05 01:19 | 44.40302 | -69.90916 | 23804 ft | 202 kts | 271° |
| 2026-05-05 01:19 | 44.40211 | -69.92883 | 23806 ft | 202 kts | 271° |
| 2026-05-05 01:19 | 44.40120 | -69.94843 | 23809 ft | 202 kts | 271° |
| 2026-05-05 01:19 | 44.40028 | -69.96809 | 23809 ft | 202 kts | 271° |
| 2026-05-05 01:20 | 44.39936 | -69.98744 | 23809 ft | 203 kts | 271° |
| 2026-05-05 01:20 | 44.39843 | -70.00734 | 23803 ft | 203 kts | 271° |
| 2026-05-05 01:20 | 44.39750 | -70.02683 | 23800 ft | 203 kts | 271° |
| 2026-05-05 01:20 | 44.39658 | -70.04645 | 23799 ft | 203 kts | 271° |
| 2026-05-05 01:21 | 44.39563 | -70.06635 | 23795 ft | 203 kts | 271° |
| 2026-05-05 01:21 | 44.39469 | -70.08599 | 23800 ft | 203 kts | 271° |
| 2026-05-05 01:21 | 44.39376 | -70.10551 | 23798 ft | 203 kts | 271° |
| 2026-05-05 01:21 | 44.39281 | -70.12506 | 23796 ft | 203 kts | 272° |
| 2026-05-05 01:22 | 44.39242 | -70.14462 | 23798 ft | 202 kts | 272° |
| 2026-05-05 01:22 | 44.39173 | -70.16418 | 23804 ft | 202 kts | 272° |
| 2026-05-05 01:22 | 44.39090 | -70.18386 | 23808 ft | 203 kts | 271° |
| 2026-05-05 01:22 | 44.39001 | -70.20365 | 23805 ft | 203 kts | 271° |
| 2026-05-05 01:23 | 44.38909 | -70.22339 | 23807 ft | 204 kts | 270° |
| 2026-05-05 01:23 | 44.38781 | -70.24306 | 23805 ft | 205 kts | 268° |
| 2026-05-05 01:23 | 44.38647 | -70.26273 | 23800 ft | 204 kts | 270° |
| 2026-05-05 01:23 | 44.38530 | -70.28250 | 23798 ft | 204 kts | 270° |
| 2026-05-05 01:24 | 44.38424 | -70.30210 | 23795 ft | 204 kts | 270° |
| 2026-05-05 01:24 | 44.38320 | -70.32190 | 23797 ft | 204 kts | 271° |
| 2026-05-05 01:24 | 44.38217 | -70.34159 | 23797 ft | 203 kts | 270° |
| 2026-05-05 01:24 | 44.38119 | -70.36117 | 23799 ft | 203 kts | 270° |
| 2026-05-05 01:25 | 44.38020 | -70.38075 | 23802 ft | 203 kts | 270° |
| 2026-05-05 01:25 | 44.37917 | -70.40059 | 23803 ft | 203 kts | 271° |
| 2026-05-05 01:25 | 44.37819 | -70.42014 | 23807 ft | 203 kts | 271° |
| 2026-05-05 01:25 | 44.37719 | -70.43977 | 23806 ft | 203 kts | 271° |
| 2026-05-05 01:26 | 44.37619 | -70.45944 | 23806 ft | 203 kts | 271° |
| 2026-05-05 01:26 | 44.37519 | -70.47907 | 23806 ft | 203 kts | 270° |
| 2026-05-05 01:26 | 44.37418 | -70.49860 | 23807 ft | 203 kts | 270° |
| 2026-05-05 01:26 | 44.37313 | -70.51848 | 23812 ft | 204 kts | 270° |
| 2026-05-05 01:27 | 44.37212 | -70.53802 | 23809 ft | 204 kts | 271° |
| 2026-05-05 01:27 | 44.37110 | -70.55765 | 23807 ft | 204 kts | 271° |
| 2026-05-05 01:27 | 44.37007 | -70.57740 | 23806 ft | 204 kts | 271° |
| 2026-05-05 01:27 | 44.36905 | -70.59703 | 23807 ft | 204 kts | 270° |
| 2026-05-05 01:28 | 44.36803 | -70.61672 | 23806 ft | 204 kts | 270° |
| 2026-05-05 01:28 | 44.36697 | -70.63638 | 23808 ft | 204 kts | 270° |
| 2026-05-05 01:28 | 44.36594 | -70.65614 | 23813 ft | 204 kts | 270° |
| 2026-05-05 01:28 | 44.36488 | -70.67584 | 23818 ft | 205 kts | 270° |
| 2026-05-05 01:29 | 44.36384 | -70.69568 | 23813 ft | 205 kts | 269° |
| 2026-05-05 01:29 | 44.36277 | -70.71574 | 23815 ft | 206 kts | 269° |
| 2026-05-05 01:29 | 44.36171 | -70.73550 | 23815 ft | 206 kts | 269° |
| 2026-05-05 01:29 | 44.36063 | -70.75547 | 23815 ft | 206 kts | 269° |
| 2026-05-05 01:30 | 44.35957 | -70.77536 | 23814 ft | 206 kts | 269° |
| 2026-05-05 01:30 | 44.35847 | -70.79536 | 23813 ft | 206 kts | 270° |
| 2026-05-05 01:30 | 44.35739 | -70.81509 | 23813 ft | 206 kts | 269° |
| 2026-05-05 01:30 | 44.35632 | -70.83518 | 23814 ft | 207 kts | 270° |
| 2026-05-05 01:31 | 44.35523 | -70.85508 | 23812 ft | 206 kts | 270° |
| 2026-05-05 01:31 | 44.35413 | -70.87516 | 23811 ft | 206 kts | 269° |
| 2026-05-05 01:31 | 44.35305 | -70.89502 | 23814 ft | 206 kts | 269° |
| 2026-05-05 01:31 | 44.35195 | -70.91508 | 23819 ft | 206 kts | 269° |
| 2026-05-05 01:32 | 44.35084 | -70.93488 | 23818 ft | 207 kts | 269° |
| 2026-05-05 01:32 | 44.34973 | -70.95489 | 23818 ft | 207 kts | 269° |
| 2026-05-05 01:32 | 44.34861 | -70.97486 | 23815 ft | 207 kts | 269° |
| 2026-05-05 01:32 | 44.34750 | -70.99468 | 23814 ft | 207 kts | 270° |
| 2026-05-05 01:33 | 44.34639 | -71.01482 | 23811 ft | 207 kts | 270° |
| 2026-05-05 01:33 | 44.34526 | -71.03469 | 23816 ft | 206 kts | 269° |
| 2026-05-05 01:33 | 44.34412 | -71.05477 | 23815 ft | 207 kts | 269° |
| 2026-05-05 01:33 | 44.34302 | -71.07451 | 23806 ft | 207 kts | 269° |
| 2026-05-05 01:34 | 44.34188 | -71.09448 | 23799 ft | 207 kts | 269° |
| 2026-05-05 01:34 | 44.34075 | -71.11446 | 23796 ft | 207 kts | 269° |
| 2026-05-05 01:34 | 44.33960 | -71.13448 | 23799 ft | 207 kts | 269° |
| 2026-05-05 01:34 | 44.33846 | -71.15445 | 23798 ft | 207 kts | 269° |
| 2026-05-05 01:35 | 44.33730 | -71.17459 | 23801 ft | 207 kts | 269° |
| 2026-05-05 01:35 | 44.33616 | -71.19445 | 23800 ft | 207 kts | 269° |
| 2026-05-05 01:35 | 44.33500 | -71.21455 | 23799 ft | 207 kts | 269° |
| 2026-05-05 01:35 | 44.33384 | -71.23446 | 23798 ft | 207 kts | 269° |
| 2026-05-05 01:36 | 44.33270 | -71.25436 | 23796 ft | 207 kts | 269° |
| 2026-05-05 01:36 | 44.33153 | -71.27429 | 23802 ft | 207 kts | 269° |
| 2026-05-05 01:36 | 44.33035 | -71.29441 | 23801 ft | 207 kts | 269° |
| 2026-05-05 01:36 | 44.32918 | -71.31423 | 23801 ft | 207 kts | 269° |
| 2026-05-05 01:37 | 44.32800 | -71.33431 | 23802 ft | 207 kts | 269° |
| 2026-05-05 01:37 | 44.32680 | -71.35444 | 23799 ft | 207 kts | 269° |
| 2026-05-05 01:37 | 44.32563 | -71.37444 | 23796 ft | 207 kts | 269° |
| 2026-05-05 01:37 | 44.32446 | -71.39422 | 23797 ft | 207 kts | 269° |
| 2026-05-05 01:38 | 44.32326 | -71.41427 | 23801 ft | 206 kts | 269° |
| 2026-05-05 01:38 | 44.32209 | -71.43415 | 23802 ft | 206 kts | 269° |
| 2026-05-05 01:38 | 44.32088 | -71.45404 | 23799 ft | 206 kts | 269° |
| 2026-05-05 01:38 | 44.31968 | -71.47393 | 23800 ft | 206 kts | 269° |
| 2026-05-05 01:39 | 44.31849 | -71.49390 | 23800 ft | 206 kts | 269° |
| 2026-05-05 01:39 | 44.31729 | -71.51367 | 23798 ft | 206 kts | 269° |
| 2026-05-05 01:39 | 44.31608 | -71.53362 | 23796 ft | 206 kts | 269° |
| 2026-05-05 01:39 | 44.31489 | -71.55335 | 23798 ft | 206 kts | 269° |
| 2026-05-05 01:40 | 44.31366 | -71.57331 | 23799 ft | 206 kts | 269° |
| 2026-05-05 01:40 | 44.31244 | -71.59313 | 23802 ft | 206 kts | 269° |
| 2026-05-05 01:40 | 44.31123 | -71.61302 | 23801 ft | 206 kts | 269° |
| 2026-05-05 01:40 | 44.31005 | -71.63302 | 23799 ft | 206 kts | 269° |
| 2026-05-05 01:41 | 44.30880 | -71.65288 | 23798 ft | 206 kts | 268° |
| 2026-05-05 01:41 | 44.30754 | -71.67285 | 23806 ft | 207 kts | 268° |
| 2026-05-05 01:41 | 44.30630 | -71.69281 | 23804 ft | 207 kts | 268° |
| 2026-05-05 01:41 | 44.30508 | -71.71262 | 23805 ft | 208 kts | 268° |
| 2026-05-05 01:42 | 44.30383 | -71.73269 | 23811 ft | 208 kts | 268° |
| 2026-05-05 01:42 | 44.30257 | -71.75277 | 23814 ft | 208 kts | 268° |
| 2026-05-05 01:42 | 44.30132 | -71.77284 | 23809 ft | 208 kts | 268° |
| 2026-05-05 01:42 | 44.30005 | -71.79294 | 23809 ft | 208 kts | 268° |
| 2026-05-05 01:43 | 44.29879 | -71.81287 | 23815 ft | 208 kts | 268° |
| 2026-05-05 01:43 | 44.29752 | -71.83295 | 23812 ft | 209 kts | 268° |
| 2026-05-05 01:43 | 44.29623 | -71.85333 | 23810 ft | 208 kts | 268° |
| 2026-05-05 01:43 | 44.29494 | -71.87341 | 23811 ft | 208 kts | 268° |
| 2026-05-05 01:44 | 44.29366 | -71.89349 | 23807 ft | 209 kts | 268° |
| 2026-05-05 01:44 | 44.29238 | -71.91367 | 23809 ft | 209 kts | 268° |
| 2026-05-05 01:44 | 44.29110 | -71.93368 | 23808 ft | 209 kts | 268° |
| 2026-05-05 01:44 | 44.28980 | -71.95382 | 23806 ft | 209 kts | 268° |
| 2026-05-05 01:45 | 44.28851 | -71.97374 | 23806 ft | 209 kts | 268° |
| 2026-05-05 01:45 | 44.28721 | -71.99403 | 23809 ft | 208 kts | 268° |
| 2026-05-05 01:45 | 44.28589 | -72.01414 | 23815 ft | 208 kts | 268° |
| 2026-05-05 01:45 | 44.28460 | -72.03429 | 23808 ft | 208 kts | 268° |
| 2026-05-05 01:46 | 44.28329 | -72.05427 | 23813 ft | 208 kts | 268° |
| 2026-05-05 01:46 | 44.28194 | -72.07449 | 23807 ft | 208 kts | 268° |
| 2026-05-05 01:46 | 44.28064 | -72.09444 | 23803 ft | 208 kts | 268° |
| 2026-05-05 01:46 | 44.27933 | -72.11453 | 23801 ft | 208 kts | 268° |
| 2026-05-05 01:47 | 44.27802 | -72.13452 | 23801 ft | 208 kts | 268° |
| 2026-05-05 01:47 | 44.27668 | -72.15470 | 23806 ft | 208 kts | 268° |
| 2026-05-05 01:47 | 44.27536 | -72.17466 | 23804 ft | 208 kts | 268° |
| 2026-05-05 01:47 | 44.27402 | -72.19460 | 23807 ft | 208 kts | 268° |
| 2026-05-05 01:48 | 44.27268 | -72.21474 | 23807 ft | 208 kts | 268° |
| 2026-05-05 01:48 | 44.27134 | -72.23481 | 23803 ft | 208 kts | 268° |
| 2026-05-05 01:48 | 44.27000 | -72.25469 | 23803 ft | 208 kts | 269° |
| 2026-05-05 01:48 | 44.26866 | -72.27470 | 23800 ft | 208 kts | 269° |
| 2026-05-05 01:49 | 44.26732 | -72.29477 | 23798 ft | 208 kts | 268° |
| 2026-05-05 01:49 | 44.26600 | -72.31461 | 23800 ft | 207 kts | 268° |
| 2026-05-05 01:49 | 44.26463 | -72.33472 | 23801 ft | 207 kts | 268° |
| 2026-05-05 01:49 | 44.26328 | -72.35455 | 23794 ft | 207 kts | 268° |
| 2026-05-05 01:50 | 44.26189 | -72.37475 | 23789 ft | 207 kts | 268° |
| 2026-05-05 01:50 | 44.26053 | -72.39462 | 23790 ft | 207 kts | 268° |
| 2026-05-05 01:50 | 44.25917 | -72.41466 | 23793 ft | 207 kts | 268° |
| 2026-05-05 01:50 | 44.25781 | -72.43443 | 23791 ft | 207 kts | 268° |
| 2026-05-05 01:51 | 44.25643 | -72.45436 | 23799 ft | 207 kts | 268° |
| 2026-05-05 01:51 | 44.25505 | -72.47438 | 23801 ft | 207 kts | 268° |
| 2026-05-05 01:51 | 44.25369 | -72.49416 | 23807 ft | 206 kts | 268° |
| 2026-05-05 01:51 | 44.25230 | -72.51427 | 23809 ft | 206 kts | 268° |
| 2026-05-05 01:52 | 44.25090 | -72.53428 | 23809 ft | 206 kts | 268° |
| 2026-05-05 01:52 | 44.24950 | -72.55460 | 23803 ft | 207 kts | 268° |
| 2026-05-05 01:52 | 44.24810 | -72.57449 | 23806 ft | 207 kts | 268° |
| 2026-05-05 01:52 | 44.24668 | -72.59485 | 23808 ft | 207 kts | 268° |
| 2026-05-05 01:53 | 44.24526 | -72.61508 | 23812 ft | 207 kts | 268° |
| 2026-05-05 01:53 | 44.24383 | -72.63540 | 23808 ft | 207 kts | 268° |
| 2026-05-05 01:53 | 44.24244 | -72.65527 | 23808 ft | 207 kts | 268° |
| 2026-05-05 01:53 | 44.24102 | -72.67516 | 23815 ft | 207 kts | 268° |
| 2026-05-05 01:54 | 44.23960 | -72.69509 | 23809 ft | 208 kts | 268° |
| 2026-05-05 01:54 | 44.23817 | -72.71516 | 23803 ft | 208 kts | 268° |
| 2026-05-05 01:54 | 44.23674 | -72.73525 | 23810 ft | 208 kts | 268° |
| 2026-05-05 01:54 | 44.23531 | -72.75549 | 23805 ft | 209 kts | 268° |
| 2026-05-05 01:55 | 44.23388 | -72.77539 | 23805 ft | 209 kts | 268° |
| 2026-05-05 01:55 | 44.23243 | -72.79552 | 23804 ft | 209 kts | 268° |
| 2026-05-05 01:55 | 44.23099 | -72.81573 | 23795 ft | 209 kts | 268° |
| 2026-05-05 01:55 | 44.22954 | -72.83572 | 23795 ft | 209 kts | 268° |
| 2026-05-05 01:56 | 44.22808 | -72.85593 | 23795 ft | 209 kts | 268° |
| 2026-05-05 01:56 | 44.22660 | -72.87631 | 23788 ft | 209 kts | 267° |
| 2026-05-05 01:56 | 44.22512 | -72.89659 | 23793 ft | 209 kts | 268° |
| 2026-05-05 01:56 | 44.22365 | -72.91692 | 23790 ft | 209 kts | 268° |
| 2026-05-05 01:57 | 44.22216 | -72.93701 | 23791 ft | 208 kts | 268° |
| 2026-05-05 01:57 | 44.22065 | -72.95746 | 23793 ft | 208 kts | 268° |
| 2026-05-05 01:57 | 44.21921 | -72.97733 | 23796 ft | 208 kts | 268° |
| 2026-05-05 01:57 | 44.21772 | -72.99765 | 23796 ft | 209 kts | 268° |
| 2026-05-05 01:58 | 44.21621 | -73.01820 | 23796 ft | 209 kts | 268° |
| 2026-05-05 01:58 | 44.21471 | -73.03846 | 23792 ft | 209 kts | 268° |
| 2026-05-05 01:58 | 44.21322 | -73.05866 | 23792 ft | 209 kts | 268° |
| 2026-05-05 01:58 | 44.21169 | -73.07905 | 23787 ft | 210 kts | 268° |
| 2026-05-05 01:59 | 44.21016 | -73.09963 | 23781 ft | 210 kts | 268° |
| 2026-05-05 01:59 | 44.20865 | -73.11999 | 23784 ft | 209 kts | 268° |
| 2026-05-05 01:59 | 44.20711 | -73.14031 | 23788 ft | 209 kts | 268° |
| 2026-05-05 01:59 | 44.20560 | -73.16056 | 23784 ft | 209 kts | 268° |
| 2026-05-05 02:00 | 44.20406 | -73.18091 | 23779 ft | 209 kts | 268° |
| 2026-05-05 02:00 | 44.20252 | -73.20134 | 23783 ft | 209 kts | 268° |
| 2026-05-05 02:00 | 44.20100 | -73.22157 | 23781 ft | 210 kts | 268° |
| 2026-05-05 02:00 | 44.19944 | -73.24223 | 23771 ft | 210 kts | 268° |
| 2026-05-05 02:01 | 44.19787 | -73.26278 | 23780 ft | 209 kts | 268° |
| 2026-05-05 02:01 | 44.19632 | -73.28297 | 23777 ft | 209 kts | 268° |
| 2026-05-05 02:01 | 44.19477 | -73.30336 | 23782 ft | 209 kts | 268° |
| 2026-05-05 02:01 | 44.19323 | -73.32375 | 23782 ft | 209 kts | 268° |
| 2026-05-05 02:02 | 44.19166 | -73.34433 | 23771 ft | 209 kts | 268° |
| 2026-05-05 02:02 | 44.19007 | -73.36475 | 23768 ft | 209 kts | 267° |
| 2026-05-05 02:02 | 44.18849 | -73.38538 | 23774 ft | 209 kts | 268° |
| 2026-05-05 02:02 | 44.18690 | -73.40603 | 23778 ft | 209 kts | 267° |
| 2026-05-05 02:03 | 44.18530 | -73.42661 | 23773 ft | 209 kts | 267° |
| 2026-05-05 02:03 | 44.18369 | -73.44720 | 23774 ft | 209 kts | 267° |
| 2026-05-05 02:03 | 44.18210 | -73.46765 | 23779 ft | 209 kts | 267° |
| 2026-05-05 02:03 | 44.18052 | -73.48799 | 23780 ft | 209 kts | 267° |
| 2026-05-05 02:04 | 44.17886 | -73.50900 | 23774 ft | 209 kts | 268° |
| 2026-05-05 02:04 | 44.17725 | -73.52958 | 23774 ft | 209 kts | 268° |
| 2026-05-05 02:04 | 44.17564 | -73.55024 | 23776 ft | 209 kts | 267° |
| 2026-05-05 02:04 | 44.17401 | -73.57095 | 23774 ft | 209 kts | 267° |
| 2026-05-05 02:05 | 44.17237 | -73.59186 | 23776 ft | 209 kts | 267° |
| 2026-05-05 02:05 | 44.17074 | -73.61232 | 23773 ft | 209 kts | 267° |
| 2026-05-05 02:05 | 44.16911 | -73.63298 | 23772 ft | 209 kts | 267° |
| 2026-05-05 02:05 | 44.16745 | -73.65376 | 23779 ft | 209 kts | 266° |
| 2026-05-05 02:06 | 44.16580 | -73.67450 | 23786 ft | 210 kts | 266° |
| 2026-05-05 02:06 | 44.16416 | -73.69514 | 23783 ft | 210 kts | 267° |
| 2026-05-05 02:06 | 44.16248 | -73.71606 | 23785 ft | 210 kts | 267° |
| 2026-05-05 02:06 | 44.16080 | -73.73697 | 23791 ft | 211 kts | 267° |
| 2026-05-05 02:07 | 44.15910 | -73.75806 | 23787 ft | 210 kts | 267° |
| 2026-05-05 02:07 | 44.15744 | -73.77870 | 23782 ft | 211 kts | 266° |
| 2026-05-05 02:07 | 44.15574 | -73.79980 | 23787 ft | 211 kts | 267° |
| 2026-05-05 02:07 | 44.15404 | -73.82078 | 23790 ft | 211 kts | 266° |
| 2026-05-05 02:08 | 44.15234 | -73.84182 | 23787 ft | 211 kts | 266° |
| 2026-05-05 02:08 | 44.15063 | -73.86269 | 23787 ft | 211 kts | 267° |
| 2026-05-05 02:08 | 44.14894 | -73.88364 | 23791 ft | 211 kts | 266° |
| 2026-05-05 02:08 | 44.14719 | -73.90495 | 23791 ft | 212 kts | 266° |
| 2026-05-05 02:09 | 44.14549 | -73.92593 | 23792 ft | 212 kts | 266° |
| 2026-05-05 02:09 | 44.14373 | -73.94715 | 23793 ft | 212 kts | 266° |
| 2026-05-05 02:09 | 44.14200 | -73.96816 | 23794 ft | 212 kts | 266° |
| 2026-05-05 02:09 | 44.14024 | -73.98940 | 23794 ft | 212 kts | 266° |
| 2026-05-05 02:10 | 44.13850 | -74.01040 | 23789 ft | 212 kts | 267° |
| 2026-05-05 02:10 | 44.13674 | -74.03177 | 23786 ft | 212 kts | 267° |
| 2026-05-05 02:10 | 44.13498 | -74.05304 | 23787 ft | 212 kts | 267° |
| 2026-05-05 02:10 | 44.13322 | -74.07431 | 23785 ft | 213 kts | 266° |
| 2026-05-05 02:11 | 44.13144 | -74.09556 | 23778 ft | 212 kts | 266° |
| 2026-05-05 02:11 | 44.12966 | -74.11678 | 23777 ft | 212 kts | 266° |
| 2026-05-05 02:11 | 44.12790 | -74.13792 | 23775 ft | 211 kts | 266° |
| 2026-05-05 02:11 | 44.12613 | -74.15900 | 23776 ft | 211 kts | 266° |
| 2026-05-05 02:12 | 44.12437 | -74.17992 | 23783 ft | 210 kts | 266° |
| 2026-05-05 02:12 | 44.12082 | -74.22188 | 23779 ft | 211 kts | 266° |
| 2026-05-05 02:12 | 44.11904 | -74.24295 | 23778 ft | 211 kts | 266° |
| 2026-05-05 02:13 | 44.11725 | -74.26405 | 23783 ft | 211 kts | 266° |
| 2026-05-05 02:13 | 44.11541 | -74.28564 | 23777 ft | 212 kts | 266° |
| 2026-05-05 02:13 | 44.11361 | -74.30669 | 23785 ft | 212 kts | 266° |
| 2026-05-05 02:13 | 44.11177 | -74.32823 | 23781 ft | 212 kts | 266° |
| 2026-05-05 02:14 | 44.10995 | -74.34940 | 23766 ft | 212 kts | 266° |
| 2026-05-05 02:14 | 44.10812 | -74.37088 | 23762 ft | 212 kts | 266° |
| 2026-05-05 02:14 | 44.10627 | -74.39223 | 23764 ft | 212 kts | 266° |
| 2026-05-05 02:14 | 44.10443 | -74.41354 | 23764 ft | 212 kts | 266° |
| 2026-05-05 02:15 | 44.10260 | -74.43477 | 23765 ft | 212 kts | 266° |
| 2026-05-05 02:15 | 44.10079 | -74.45579 | 23764 ft | 212 kts | 266° |
| 2026-05-05 02:15 | 44.09894 | -74.47701 | 23765 ft | 212 kts | 266° |
| 2026-05-05 02:15 | 44.09708 | -74.49841 | 23770 ft | 212 kts | 266° |
| 2026-05-05 02:16 | 44.09524 | -74.51959 | 23765 ft | 212 kts | 266° |
| 2026-05-05 02:16 | 44.09337 | -74.54084 | 23764 ft | 212 kts | 266° |
| 2026-05-05 02:16 | 44.09153 | -74.56186 | 23764 ft | 212 kts | 266° |
| 2026-05-05 02:16 | 44.08966 | -74.58314 | 23761 ft | 212 kts | 265° |
| 2026-05-05 02:17 | 44.08780 | -74.60429 | 23762 ft | 212 kts | 266° |
| 2026-05-05 02:17 | 44.08591 | -74.62563 | 23766 ft | 212 kts | 266° |
| 2026-05-05 02:17 | 44.08405 | -74.64681 | 23772 ft | 212 kts | 266° |
| 2026-05-05 02:17 | 44.08219 | -74.66762 | 23779 ft | 212 kts | 265° |
| 2026-05-05 02:18 | 44.08035 | -74.68859 | 23777 ft | 213 kts | 265° |
| 2026-05-05 02:18 | 44.07846 | -74.70988 | 23774 ft | 213 kts | 265° |
| 2026-05-05 02:18 | 44.07660 | -74.73076 | 23765 ft | 213 kts | 265° |
| 2026-05-05 02:18 | 44.07471 | -74.75195 | 23760 ft | 214 kts | 265° |
| 2026-05-05 02:19 | 44.07282 | -74.77303 | 23758 ft | 213 kts | 265° |
| 2026-05-05 02:19 | 44.07092 | -74.79408 | 23757 ft | 214 kts | 265° |
| 2026-05-05 02:19 | 44.06902 | -74.81528 | 23756 ft | 214 kts | 265° |
| 2026-05-05 02:19 | 44.06711 | -74.83643 | 23758 ft | 214 kts | 265° |
| 2026-05-05 02:20 | 44.06520 | -74.85771 | 23761 ft | 214 kts | 265° |
| 2026-05-05 02:20 | 44.06329 | -74.87891 | 23759 ft | 214 kts | 265° |
| 2026-05-05 02:20 | 44.06135 | -74.90011 | 23709 ft | 215 kts | 265° |
| 2026-05-05 02:20 | 44.05941 | -74.92192 | 23219 ft | 226 kts | 265° |
| 2026-05-05 02:21 | 44.05736 | -74.94464 | 22701 ft | 235 kts | 264° |
| 2026-05-05 02:21 | 44.05523 | -74.96796 | 22190 ft | 240 kts | 264° |
| 2026-05-05 02:21 | 44.05305 | -74.99181 | 21667 ft | 238 kts | 264° |
| 2026-05-05 02:21 | 44.05091 | -75.01504 | 21108 ft | 236 kts | 264° |
| 2026-05-05 02:22 | 44.04878 | -75.03803 | 20554 ft | 234 kts | 264° |
| 2026-05-05 02:22 | 44.04668 | -75.06059 | 20024 ft | 232 kts | 264° |
| 2026-05-05 02:22 | 44.04458 | -75.08345 | 19471 ft | 230 kts | 264° |
| 2026-05-05 02:22 | 44.04252 | -75.10575 | 18931 ft | 228 kts | 264° |
| 2026-05-05 02:23 | 44.04044 | -75.12814 | 18396 ft | 226 kts | 264° |
| 2026-05-05 02:23 | 44.03835 | -75.15067 | 17874 ft | 228 kts | 264° |
| 2026-05-05 02:23 | 44.03629 | -75.17301 | 17349 ft | 228 kts | 264° |
| 2026-05-05 02:23 | 44.03419 | -75.19546 | 16825 ft | 227 kts | 263° |
| 2026-05-05 02:24 | 44.03208 | -75.21807 | 16296 ft | 226 kts | 263° |
| 2026-05-05 02:24 | 44.02998 | -75.24050 | 15782 ft | 224 kts | 263° |
| 2026-05-05 02:24 | 44.02789 | -75.26255 | 15273 ft | 222 kts | 263° |
| 2026-05-05 02:24 | 44.02589 | -75.28394 | 14774 ft | 221 kts | 263° |
| 2026-05-05 02:25 | 44.02383 | -75.30581 | 14250 ft | 220 kts | 263° |
| 2026-05-05 02:25 | 44.02176 | -75.32759 | 13760 ft | 218 kts | 263° |
| 2026-05-05 02:25 | 44.01974 | -75.34901 | 13280 ft | 217 kts | 263° |
| 2026-05-05 02:25 | 44.01770 | -75.37062 | 12787 ft | 217 kts | 262° |
| 2026-05-05 02:26 | 44.01566 | -75.39219 | 12283 ft | 216 kts | 262° |
| 2026-05-05 02:26 | 44.01360 | -75.41380 | 11798 ft | 216 kts | 261° |
| 2026-05-05 02:26 | 44.01156 | -75.43505 | 11327 ft | 216 kts | 261° |
| 2026-05-05 02:26 | 44.00954 | -75.45631 | 10847 ft | 215 kts | 261° |
| 2026-05-05 02:27 | 44.00748 | -75.47782 | 10360 ft | 213 kts | 260° |
| 2026-05-05 02:27 | 44.00544 | -75.49909 | 9856 ft | 209 kts | 259° |
| 2026-05-05 02:27 | 44.00349 | -75.51936 | 9369 ft | 201 kts | 259° |
| 2026-05-05 02:27 | 44.00152 | -75.53945 | 8884 ft | 200 kts | 259° |
| 2026-05-05 02:28 | 43.99958 | -75.55954 | 8404 ft | 199 kts | 259° |
| 2026-05-05 02:28 | 43.99765 | -75.57933 | 7927 ft | 198 kts | 259° |
| 2026-05-05 02:28 | 43.99577 | -75.59894 | 7477 ft | 198 kts | 259° |
| 2026-05-05 02:28 | 43.99386 | -75.61873 | 7002 ft | 193 kts | 259° |
| 2026-05-05 02:29 | 43.99203 | -75.63753 | 6537 ft | 184 kts | 259° |
| 2026-05-05 02:29 | 43.99029 | -75.65524 | 6109 ft | 179 kts | 258° |
| 2026-05-05 02:29 | 43.98861 | -75.67258 | 5670 ft | 176 kts | 258° |
| 2026-05-05 02:29 | 43.98692 | -75.68989 | 5220 ft | 172 kts | 257° |
| 2026-05-05 02:30 | 43.98529 | -75.70659 | 4783 ft | 168 kts | 257° |
| 2026-05-05 02:30 | 43.98373 | -75.72244 | 4355 ft | 165 kts | 257° |
| 2026-05-05 02:30 | 43.98212 | -75.73873 | 3929 ft | 164 kts | 256° |
| 2026-05-05 02:30 | 43.98169 | -75.75493 | 3551 ft | 161 kts | 265° |
| 2026-05-05 02:31 | 43.98228 | -75.76962 | 3481 ft | 141 kts | 265° |
| 2026-05-05 02:31 | 43.98282 | -75.78246 | 3374 ft | 130 kts | 264° |
| 2026-05-05 02:31 | 43.98328 | -75.79531 | 3221 ft | 135 kts | 264° |
| 2026-05-05 02:31 | 43.98379 | -75.80936 | 3055 ft | 147 kts | 264° |
| 2026-05-05 02:32 | 43.98436 | -75.82414 | 2863 ft | 153 kts | 265° |
| 2026-05-05 02:32 | 43.98494 | -75.83892 | 2656 ft | 154 kts | 265° |
| 2026-05-05 02:32 | 43.98555 | -75.85371 | 2448 ft | 145 kts | 265° |
| 2026-05-05 02:32 | 43.98608 | -75.86742 | 2262 ft | 138 kts | 265° |
| 2026-05-05 02:33 | 43.98659 | -75.87958 | 2102 ft | 117 kts | 265° |
| 2026-05-05 02:33 | 43.98717 | -75.89018 | 1958 ft | 105 kts | 263° |
| 2026-05-05 02:33 | 43.98766 | -75.90049 | 1838 ft | 104 kts | 261° |
| 2026-05-05 02:33 | 43.98791 | -75.91072 | 1692 ft | 106 kts | 262° |
| 2026-05-05 02:34 | 43.98817 | -75.92110 | 1519 ft | 109 kts | 262° |
| 2026-05-05 02:34 | 43.98847 | -75.93168 | 1370 ft | 111 kts | 265° |
| 2026-05-05 02:34 | 43.98893 | -75.94250 | 1211 ft | 112 kts | 265° |
| 2026-05-05 02:34 | 43.98948 | -75.95355 | 1051 ft | 113 kts | 267° |
| 2026-05-05 02:35 | 43.98983 | -75.96456 | 910 ft | 112 kts | 267° |
| 2026-05-05 02:35 | 43.99025 | -75.97495 | 764 ft | 104 kts | 268° |
| 2026-05-05 02:35 | 43.99057 | -75.98489 | 618 ft | 100 kts | 268° |
| 2026-05-05 02:35 | 43.99096 | -75.99469 | 495 ft | 101 kts | 268° |
| 2026-05-05 02:36 | 43.99128 | -76.00415 | 374 ft | 90 kts | 270° |
| 2026-05-05 02:36 | 43.99154 | -76.01144 | 322 ft | 55 kts | 270° |
| 2026-05-05 02:36 | 43.99169 | -76.01547 | 321 ft | 33 kts | 274° |
| 2026-05-05 02:36 | 43.99181 | -76.01834 | 319 ft | 25 kts | 273° |
| 2026-05-05 02:37 | 43.99181 | -76.02074 | 316 ft | 27 kts | 279° |
| 2026-05-05 02:37 | 43.99200 | -76.02339 | 313 ft | 14 kts | 274° |
| 2026-05-05 02:37 | 43.99248 | -76.02384 | 313 ft | 14 kts | 55° |
| 2026-05-05 02:37 | 43.99313 | -76.02301 | 316 ft | 11 kts | 345° |
| 2026-05-05 02:38 | 43.99347 | -76.02402 | 314 ft | 10 kts | 301° |
| 2026-05-05 02:38 | 43.99373 | -76.02358 | 315 ft | 5 kts | 95° |
| 2026-05-05 02:38 | 43.99373 | -76.02354 | 315 ft | 0 kts | 91° |